Ceiba, Puerto Rico

9:19 AM AST on January 26, 2015 (GMT -0400)
Manejo de Emergencias Ceiba | Change Station
CLOSE
Current Station
Personal Weather Station
Location: Ceiba, PR
Elevation: 95 ft
Nearby Weather Stations

Elev 95 ft 18.26 °N, 65.65 °W | Updated 1 minute ago

Mostly Cloudy
Mostly Cloudy
79.1 °F
Feels Like 82 °F
N
2.0
Wind Variable Wind from SE
Gusts 9.0 mph

Today
High -- | Low -- °F
--% Chance of Precip.
Yesterday
High -- | Low -- °F
Precip. -- in
6:56 AM 6:13 PM
Waxing Crescent, 43% visible
Pressure 30.07 in
Visibility 10.0 miles
Clouds Mostly Cloudy 2700 ft
Mostly Cloudy 6000 ft
Heat Index 82 °F
Dew Point 72 °F
Humidity 80%
Rainfall -999.00 in
Snow Depth Not available.
UV 1 out of 12
Pollen Not available.
Air Quality Not available.
Flu Activity Not available.
SPECI TJNR 261305Z AUTO 10009KT 10SM BKN027 BKN060 26/22 A3007 RMK AO2 T02610217

More Conditions Fewer Conditions

Pressure 30.07 in
Visibility 10.0 miles
Clouds Mostly Cloudy 2700 ft
Mostly Cloudy 6000 ft
Heat Index 82 °F
Dew Point 72 °F
Humidity 80%
Rainfall -999.00 in
Snow Depth Not available.
UV 1 out of 12
Pollen Not available.
Air Quality Not available.
Flu Activity Not available.
SPECI TJNR 261305Z AUTO 10009KT 10SM BKN027 BKN060 26/22 A3007 RMK AO2 T02610217

More Conditions Fewer Conditions

10-Day Weather Forecast

Almanac

Astronomy

Jan. 26, 2015 Rise Set
Actual Time
Civil Twilight
Nautical Twilight
Astronomical Twilight
Moon
Length of Visible Light
Length of Day
Tomorrow will be .
, % of the Moon is Illuminated

Today's Extremes

Country Highs Country Lows

Community

WunderPhotos

Upload Photos

1,790,192 photos uploaded!

WunderBlogs® & News

Nearby

Air Quality

  Air Quality AQ Index Pollutant
Not available.

Snow Depth

Station Depth Elevation

Earthquake Activity

City Distance Mag. Time & Date
Minimum magnitude displayed is 2.5.

Coastal Water Temperatures

Place Temperature

Nearby Weather Stations